Time;durP1;ratioP1;P1;durP2;ratioP2;P2;SDS_P1;SDS_P2;PMS_P1;PMS_P2;Temp;Humidity;BMP_temperature;BMP_pressure;BME280_temperature;BME280_humidity;BME280_pressure;Samples;Min_cycle;Max_cycle;Signal;HPM_P1;HPM_P2
2022/12/19 00:02:35;;;;;;;0.05;0.05;;;4.20;99.90;;;;;;5082415;28;20016;-76
2022/12/19 00:05:01;;;;;;;7.13;6.82;;;4.00;99.90;;;;;;5083043;28;20015;-76
2022/12/19 00:07:50;;;;;;;0.00;0.00;;;4.50;99.90;;;;;;5051612;28;20538;-78
2022/12/19 00:10:16;;;;;;;0.10;0.10;;;4.10;99.90;;;;;;5073311;28;20313;-76
2022/12/19 00:12:42;;;;;;;0.10;0.10;;;4.10;99.90;;;;;;5071679;28;20061;-75
2022/12/19 00:15:10;;;;;;;0.10;0.10;;;4.00;99.90;;;;;;5072913;28;20021;-74
2022/12/19 00:17:36;;;;;;;0.00;0.00;;;3.90;99.90;;;;;;5073305;28;20021;-75
2022/12/19 00:20:22;;;;;;;0.10;0.10;;;3.80;99.90;;;;;;5072911;28;20121;-76
2022/12/19 00:22:47;;;;;;;0.10;0.10;;;3.70;99.90;;;;;;5055256;28;20021;-75
2022/12/19 00:25:13;;;;;;;0.10;0.10;;;3.70;99.90;;;;;;5073453;28;20395;-75
2022/12/19 00:27:39;;;;;;;0.05;0.05;;;3.70;99.90;;;;;;5071947;28;20733;-75
2022/12/19 00:30:11;;;;;;;0.30;0.30;;;3.70;99.90;;;;;;5061303;28;20119;-75
2022/12/19 00:32:37;;;;;;;0.10;0.10;;;;;;;;;;5081546;28;20025;-76
2022/12/19 00:35:05;;;;;;;0.52;0.52;;;3.70;99.90;;;;;;5087160;28;20076;-76
2022/12/19 00:37:31;;;;;;;0.20;0.20;;;3.60;99.90;;;;;;5084677;28;20025;-75
2022/12/19 00:39:57;;;;;;;0.10;0.10;;;3.60;99.90;;;;;;5085086;28;20076;-75
2022/12/19 00:42:23;;;;;;;0.03;0.03;;;3.60;99.90;;;;;;5082885;28;20059;-75
2022/12/19 00:44:50;;;;;;;0.10;0.10;;;3.40;99.90;;;;;;5082050;28;20062;-75
2022/12/19 00:47:19;;;;;;;0.00;0.00;;;3.40;99.90;;;;;;5080224;28;20041;-75
2022/12/19 00:49:45;;;;;;;0.00;0.00;;;3.40;99.90;;;;;;5040176;28;20527;-75
2022/12/19 00:52:14;;;;;;;0.00;0.00;;;3.40;99.90;;;;;;5077241;28;20025;-75
2022/12/19 00:54:40;;;;;;;0.00;0.00;;;3.40;99.90;;;;;;5076567;28;20020;-75
2022/12/19 00:57:05;;;;;;;0.00;0.00;;;3.30;99.90;;;;;;5077258;28;20024;-76
2022/12/19 00:59:31;;;;;;;0.10;0.10;;;3.20;99.90;;;;;;5077961;28;20024;-75
2022/12/19 01:01:57;;;;;;;1.48;1.48;;;3.10;99.90;;;;;;5074711;28;20317;-75
2022/12/19 01:04:23;;;;;;;0.10;0.10;;;3.20;99.90;;;;;;5071458;28;20048;-75
2022/12/19 01:06:49;;;;;;;0.10;0.10;;;3.20;99.90;;;;;;5074656;28;20031;-75
2022/12/19 01:09:20;;;;;;;0.03;0.03;;;3.20;99.90;;;;;;5074882;28;20033;-76
2022/12/19 01:14:32;;;;;;;0.10;0.10;;;3.20;99.90;;;;;;5080181;28;20024;-77
2022/12/19 01:16:58;;;;;;;0.10;0.10;;;3.10;99.90;;;;;;5071071;28;20049;-76
2022/12/19 01:19:26;;;;;;;0.00;0.00;;;3.00;99.90;;;;;;5074600;28;20021;-75
2022/12/19 01:21:52;;;;;;;0.00;0.00;;;3.00;99.90;;;;;;5078788;28;20019;-76
2022/12/19 01:24:22;;;;;;;0.10;0.10;;;2.90;99.90;;;;;;5078811;28;20138;-75
2022/12/19 01:26:48;;;;;;;0.10;0.10;;;2.70;99.90;;;;;;5078997;28;20029;-76
2022/12/19 01:29:14;;;;;;;0.10;0.10;;;2.70;99.90;;;;;;5077143;28;20032;-75
2022/12/19 01:31:39;;;;;;;0.10;0.10;;;2.70;99.90;;;;;;5076305;28;20094;-75
2022/12/19 01:34:05;;;;;;;0.00;0.00;;;2.70;99.90;;;;;;5069279;28;20024;-75
2022/12/19 01:36:31;;;;;;;0.10;0.10;;;2.60;99.90;;;;;;5054336;28;20426;-75
2022/12/19 01:38:57;;;;;;;0.10;0.10;;;2.50;99.90;;;;;;5058569;28;20284;-75
2022/12/19 01:41:23;;;;;;;0.03;0.03;;;2.80;99.90;;;;;;5075677;28;20053;-76
2022/12/19 01:44:07;;;;;;;20.20;19.30;;;2.10;99.90;;;;;;5076410;28;20016;-75
2022/12/19 01:46:37;;;;;;;0.20;0.20;;;2.30;99.90;;;;;;5073550;28;20028;-75
2022/12/19 01:49:05;;;;;;;0.10;0.10;;;2.10;99.90;;;;;;5072704;28;20079;-76
2022/12/19 01:51:41;;;;;;;0.00;0.00;;;2.00;99.90;;;;;;5070402;28;20031;-76
2022/12/19 01:54:14;;;;;;;0.10;0.10;;;2.20;99.90;;;;;;5068407;28;20032;-75
2022/12/19 01:56:46;;;;;;;0.00;0.00;;;1.90;99.90;;;;;;5068374;28;20101;-74
2022/12/19 01:59:19;;;;;;;0.10;0.10;;;1.90;99.90;;;;;;5068112;28;20044;-75
2022/12/19 02:01:45;;;;;;;0.10;0.10;;;;;;;;;;5067161;28;20507;-75
2022/12/19 02:04:13;;;;;;;0.08;0.08;;;1.80;99.90;;;;;;5049511;28;20124;-75
2022/12/19 02:06:43;;;;;;;0.10;0.10;;;1.70;99.90;;;;;;5069630;28;20484;-76
2022/12/19 02:09:11;;;;;;;0.10;0.10;;;1.80;99.90;;;;;;5050303;28;20029;-75
2022/12/19 02:11:37;;;;;;;0.20;0.20;;;1.70;99.90;;;;;;5033836;28;20047;-75
2022/12/19 02:14:03;;;;;;;0.10;0.10;;;1.60;99.90;;;;;;5065740;28;20024;-74
2022/12/19 02:16:49;;;;;;;0.10;0.10;;;1.40;99.90;;;;;;5069081;28;20359;-75
2022/12/19 02:19:43;;;;;;;0.00;0.00;;;1.50;99.90;;;;;;5067971;28;20017;-75
2022/12/19 02:22:15;;;;;;;0.10;0.10;;;-0.50;99.90;;;;;;5066228;28;20111;-76
2022/12/19 02:24:52;;;;;;;0.00;0.00;;;1.60;99.90;;;;;;5066535;28;20301;-75
2022/12/19 02:27:38;;;;;;;0.08;0.08;;;1.70;99.90;;;;;;5075590;28;20076;-75
2022/12/19 02:30:31;;;;;;;0.10;0.10;;;1.50;99.90;;;;;;5078161;28;20356;-75
2022/12/19 02:33:09;;;;;;;0.10;0.10;;;1.50;99.90;;;;;;5058801;28;20557;-75
2022/12/19 02:35:56;;;;;;;0.10;0.10;;;1.40;99.90;;;;;;5072893;28;20017;-76
2022/12/19 02:38:35;;;;;;;0.30;0.30;;;1.40;99.90;;;;;;5073456;28;20062;-75
2022/12/19 02:41:12;;;;;;;0.10;0.10;;;1.40;99.90;;;;;;5079227;28;20033;-77
2022/12/19 02:43:48;;;;;;;0.05;0.05;;;1.30;99.90;;;;;;5079372;28;20030;-74
2022/12/19 02:46:23;;;;;;;0.10;0.10;;;1.30;99.90;;;;;;5080126;28;20024;-75
2022/12/19 02:48:50;;;;;;;0.10;0.10;;;1.30;99.90;;;;;;5071028;28;20150;-76
2022/12/19 02:51:16;;;;;;;0.10;0.10;;;1.30;99.90;;;;;;5067406;28;20025;-74
2022/12/19 02:53:42;;;;;;;0.17;0.17;;;1.30;99.90;;;;;;5069498;28;20514;-75
2022/12/19 02:56:49;;;;;;;0.10;0.10;;;1.20;99.90;;;;;;5070021;28;20020;-76
2022/12/19 02:59:20;;;;;;;0.10;0.10;;;1.20;99.90;;;;;;4990239;28;20023;-74
2022/12/19 03:02:01;;;;;;;0.10;0.10;;;1.20;99.90;;;;;;4990093;28;20041;-76
2022/12/19 03:04:46;;;;;;;0.10;0.10;;;1.20;99.90;;;;;;4976346;28;20039;-75
2022/12/19 03:07:33;;;;;;;0.10;0.10;;;1.20;99.90;;;;;;4992986;28;20049;-75
2022/12/19 03:10:42;;;;;;;0.10;0.10;;;1.20;99.90;;;;;;4991130;28;20331;-75
2022/12/19 03:13:17;;;;;;;0.10;0.10;;;1.20;99.90;;;;;;4933356;29;20067;-74
2022/12/19 03:15:46;;;;;;;0.20;0.20;;;1.20;99.90;;;;;;4933772;29;20111;-75
2022/12/19 03:18:12;;;;;;;0.10;0.10;;;1.20;99.90;;;;;;4932378;29;20032;-75
2022/12/19 03:20:56;;;;;;;0.10;0.10;;;1.20;99.90;;;;;;4932926;28;20046;-75
2022/12/19 03:23:23;;;;;;;0.10;0.10;;;1.10;99.90;;;;;;4934244;29;20111;-75
2022/12/19 03:25:56;;;;;;;0.10;0.10;;;1.10;99.90;;;;;;4934384;28;20055;-75
2022/12/19 03:28:55;;;;;;;0.10;0.10;;;1.10;99.90;;;;;;4933277;29;20127;-74
2022/12/19 03:31:28;;;;;;;0.10;0.10;;;1.00;99.90;;;;;;4933747;29;20107;-75
2022/12/19 03:34:03;;;;;;;0.50;0.50;;;1.00;99.90;;;;;;4965982;28;20035;-75
2022/12/19 03:36:39;;;;;;;0.10;0.10;;;1.00;99.90;;;;;;4975308;28;20035;-75
2022/12/19 03:39:07;;;;;;;0.08;0.08;;;1.00;99.90;;;;;;4977146;28;20023;-76
2022/12/19 03:44:21;;;;;;;0.10;0.10;;;1.00;99.90;;;;;;5028689;28;20397;-75
2022/12/19 03:47:06;;;;;;;0.10;0.10;;;-0.20;99.90;;;;;;5068955;28;20025;-75
2022/12/19 03:49:31;;;;;;;;;;;0.90;99.90;;;;;;5066563;28;20194;-74
2022/12/19 03:52:27;;;;;;;0.10;0.10;;;0.90;99.90;;;;;;5066401;28;20506;-75
2022/12/19 03:55:13;;;;;;;0.10;0.10;;;0.90;99.90;;;;;;5068404;28;20240;-75
2022/12/19 03:57:44;;;;;;;0.10;0.10;;;0.90;99.90;;;;;;5049134;28;20024;-75
2022/12/19 04:00:14;;;;;;;0.10;0.10;;;0.90;99.90;;;;;;5048947;28;20455;-75
2022/12/19 04:02:47;;;;;;;3.90;3.70;;;0.90;99.90;;;;;;5068719;28;20027;-75
2022/12/19 04:05:18;;;;;;;0.10;0.10;;;0.80;99.90;;;;;;5065809;28;20224;-75
2022/12/19 04:07:44;;;;;;;0.10;0.10;;;0.80;99.90;;;;;;5064367;28;20233;-75
2022/12/19 04:10:15;;;;;;;0.10;0.10;;;0.80;99.90;;;;;;5050503;28;20028;-75
2022/12/19 04:12:47;;;;;;;0.10;0.10;;;0.80;99.90;;;;;;5049612;28;20032;-75
2022/12/19 04:15:16;;;;;;;0.10;0.10;;;0.80;99.90;;;;;;5071332;28;20486;-75
2022/12/19 04:17:49;;;;;;;0.10;0.10;;;0.70;99.90;;;;;;5068710;28;20016;-75
2022/12/19 04:20:18;;;;;;;0.10;0.10;;;0.70;99.90;;;;;;5069267;28;20024;-75
2022/12/19 04:23:09;;;;;;;0.20;0.20;;;0.80;99.90;;;;;;5068035;28;20414;-75
2022/12/19 04:25:38;;;;;;;0.10;0.10;;;0.70;99.90;;;;;;5069032;28;20402;-75
2022/12/19 04:28:30;;;;;;;0.10;0.10;;;0.70;99.90;;;;;;5067887;28;20032;-75
2022/12/19 04:30:57;;;;;;;0.10;0.10;;;0.70;99.90;;;;;;5071036;28;20108;-75
2022/12/19 04:33:23;;;;;;;0.20;0.20;;;0.70;99.90;;;;;;5070528;28;20221;-75
2022/12/19 04:35:48;;;;;;;0.10;0.10;;;0.60;99.90;;;;;;5073248;28;20670;-75
2022/12/19 04:38:14;;;;;;;0.10;0.10;;;0.60;99.90;;;;;;5072344;28;20435;-75
2022/12/19 04:40:40;;;;;;;0.10;0.10;;;0.50;99.90;;;;;;5037428;28;20040;-75
2022/12/19 04:43:07;;;;;;;5.73;5.43;;;;;;;;;;5075472;28;20056;-75
2022/12/19 04:45:33;;;;;;;0.10;0.10;;;0.50;99.90;;;;;;5070839;28;20033;-75
2022/12/19 04:48:00;;;;;;;0.10;0.10;;;0.50;99.90;;;;;;5072049;28;20081;-75
2022/12/19 04:50:26;;;;;;;0.10;0.10;;;0.50;99.90;;;;;;5072409;28;20032;-75
2022/12/19 04:52:54;;;;;;;0.10;0.10;;;0.50;99.90;;;;;;5075658;28;20529;-75
2022/12/19 04:55:20;;;;;;;0.20;0.20;;;0.40;99.90;;;;;;5067426;28;20063;-74
2022/12/19 04:57:46;;;;;;;0.10;0.10;;;0.50;99.90;;;;;;5069050;28;20233;-75
2022/12/19 05:00:12;;;;;;;0.10;0.10;;;0.50;99.90;;;;;;5049754;28;20079;-76
2022/12/19 05:02:46;;;;;;;0.10;0.10;;;0.40;99.90;;;;;;5070366;28;20019;-75
2022/12/19 05:05:15;;;;;;;0.10;0.10;;;0.40;99.90;;;;;;5074754;28;20054;-76
2022/12/19 05:07:42;;;;;;;0.10;0.10;;;0.40;99.90;;;;;;5074477;28;20024;-75
2022/12/19 05:10:10;;;;;;;0.10;0.10;;;0.40;99.90;;;;;;5076163;28;20367;-75
2022/12/19 05:12:36;;;;;;;0.20;0.20;;;0.40;99.90;;;;;;5057985;28;20084;-75
2022/12/19 05:15:02;;;;;;;0.10;0.10;;;0.40;99.90;;;;;;5082016;28;20024;-75
2022/12/19 05:17:27;;;;;;;0.10;0.10;;;0.40;99.90;;;;;;5079412;28;20035;-75
2022/12/19 05:19:53;;;;;;;0.10;0.10;;;0.30;99.90;;;;;;5075513;28;20017;-75
2022/12/19 05:22:19;;;;;;;0.00;0.00;;;0.30;99.90;;;;;;5079320;28;20039;-74
2022/12/19 05:24:49;;;;;;;0.10;0.10;;;0.30;99.90;;;;;;5081602;28;20067;-75
2022/12/19 05:27:16;;;;;;;0.17;0.17;;;0.20;99.90;;;;;;5071556;28;20059;-74
2022/12/19 05:29:43;;;;;;;0.10;0.10;;;0.30;99.90;;;;;;5072927;28;20301;-75
2022/12/19 05:32:09;;;;;;;0.00;0.00;;;;;;;;;;5072759;28;20516;-75
2022/12/19 05:34:35;;;;;;;0.10;0.10;;;0.30;99.90;;;;;;5072188;28;20093;-75
2022/12/19 05:37:05;;;;;;;0.10;0.10;;;0.30;99.90;;;;;;5075329;28;20099;-75
2022/12/19 05:39:33;;;;;;;0.10;0.10;;;0.20;99.90;;;;;;5074043;28;20088;-74
2022/12/19 05:42:00;;;;;;;31.43;28.23;;;0.20;99.90;;;;;;5073491;28;20037;-75
2022/12/19 05:44:26;;;;;;;0.10;0.10;;;0.20;99.90;;;;;;5068914;28;20079;-75
2022/12/19 05:46:53;;;;;;;0.13;0.13;;;0.20;99.90;;;;;;5050218;28;20029;-75
2022/12/19 05:49:20;;;;;;;0.20;0.20;;;0.20;99.90;;;;;;5070458;28;20036;-75
2022/12/19 05:51:46;;;;;;;0.10;0.10;;;0.20;99.90;;;;;;5069357;28;20032;-75
2022/12/19 05:54:12;;;;;;;0.10;0.10;;;0.20;99.90;;;;;;5052994;28;20606;-76
2022/12/19 05:56:38;;;;;;;0.20;0.20;;;0.10;99.90;;;;;;5072742;28;20104;-76
2022/12/19 05:59:04;;;;;;;0.20;0.20;;;0.10;99.90;;;;;;5038456;28;20037;-76
2022/12/19 06:01:31;;;;;;;0.10;0.10;;;0.10;99.90;;;;;;5059994;28;20072;-75
2022/12/19 06:03:56;;;;;;;0.10;0.10;;;0.10;99.90;;;;;;5055343;28;20063;-76
2022/12/19 06:06:26;;;;;;;0.10;0.10;;;0.10;99.90;;;;;;5078674;28;20403;-75
2022/12/19 06:09:00;;;;;;;0.10;0.10;;;0.10;99.90;;;;;;5078022;28;20043;-76
2022/12/19 06:11:27;;;;;;;0.20;0.20;;;0.50;99.90;;;;;;5084411;28;20111;-75
2022/12/19 06:13:56;;;;;;;0.20;0.20;;;0.00;99.90;;;;;;5064970;28;20036;-75
2022/12/19 06:16:23;;;;;;;0.10;0.10;;;0.00;99.90;;;;;;5083975;28;20433;-75
2022/12/19 06:18:50;;;;;;;0.40;0.40;;;0.00;99.90;;;;;;5083130;28;20046;-76
2022/12/19 06:21:30;;;;;;;0.10;0.10;;;0.00;99.90;;;;;;5064823;28;20107;-76
2022/12/19 06:24:00;;;;;;;0.20;0.20;;;-0.10;99.90;;;;;;5065286;28;20100;-75
2022/12/19 06:26:30;;;;;;;0.17;0.17;;;-0.10;99.90;;;;;;5085884;28;20039;-75
2022/12/19 06:29:01;;;;;;;0.20;0.20;;;-0.20;99.90;;;;;;5082502;28;20052;-76
2022/12/19 06:31:36;;;;;;;0.10;0.10;;;-0.20;99.90;;;;;;5079075;28;20043;-75
2022/12/19 06:34:02;;;;;;;0.20;0.20;;;-0.10;99.90;;;;;;5078244;28;20096;-75
2022/12/19 06:36:30;;;;;;;0.20;0.20;;;-0.10;99.90;;;;;;5078317;28;20056;-75
2022/12/19 06:38:57;;;;;;;0.10;0.10;;;0.00;99.90;;;;;;5081377;28;20009;-76
2022/12/19 06:44:33;;;;;;;0.20;0.20;;;-0.10;99.90;;;;;;5028308;28;20028;-74
2022/12/19 06:47:02;;;;;;;0.17;0.17;;;-0.10;99.90;;;;;;5027068;28;20044;-75
2022/12/19 06:49:30;;;;;;;0.20;0.20;;;-0.10;99.90;;;;;;5033690;28;20484;-75
2022/12/19 06:51:56;;;;;;;0.17;0.17;;;-0.10;99.90;;;;;;5035145;28;20034;-75
2022/12/19 06:54:27;;;;;;;0.10;0.10;;;;;;;;;;5027169;28;20160;-75
2022/12/19 06:56:54;;;;;;;0.20;0.20;;;-0.10;99.90;;;;;;5026528;28;20091;-75
2022/12/19 06:59:20;;;;;;;0.10;0.10;;;;;;;;;;5011912;28;20026;-75
2022/12/19 07:02:00;;;;;;;0.10;0.10;;;0.10;99.90;;;;;;5029826;28;20057;-76
2022/12/19 07:04:42;;;;;;;0.10;0.10;;;0.10;99.90;;;;;;5030799;28;20125;-75
2022/12/19 07:07:09;;;;;;;0.20;0.20;;;0.10;99.90;;;;;;5030034;28;20021;-76
2022/12/19 07:09:35;;;;;;;0.20;0.20;;;0.00;99.90;;;;;;5031426;28;20044;-75
2022/12/19 07:12:02;;;;;;;0.20;0.20;;;0.10;99.90;;;;;;5030942;28;20037;-75
2022/12/19 07:14:28;;;;;;;0.10;0.10;;;0.60;99.90;;;;;;5031374;28;20028;-75
2022/12/19 07:16:57;;;;;;;0.20;0.20;;;0.10;99.90;;;;;;5026533;28;20021;-75
2022/12/19 07:19:23;;;;;;;0.20;0.20;;;0.20;99.90;;;;;;5063639;28;20221;-76
2022/12/19 07:21:50;;;;;;;0.17;0.17;;;-0.20;99.90;;;;;;5055353;28;20033;-75
2022/12/19 07:24:16;;;;;;;0.10;0.10;;;0.20;99.90;;;;;;5073634;28;20359;-76
2022/12/19 07:26:45;;;;;;;0.10;0.10;;;0.40;99.90;;;;;;5070224;28;20107;-75
2022/12/19 07:29:12;;;;;;;0.20;0.20;;;0.60;99.90;;;;;;5073429;28;20118;-75
2022/12/19 07:31:40;;;;;;;0.10;0.10;;;-0.60;99.90;;;;;;5058209;28;20474;-75
2022/12/19 07:34:06;;;;;;;0.20;0.20;;;0.60;99.90;;;;;;5076416;28;20185;-76
2022/12/19 07:36:33;;;;;;;0.10;0.10;;;0.70;99.90;;;;;;5056034;28;20344;-75
2022/12/19 07:38:59;;;;;;;0.10;0.10;;;0.80;99.90;;;;;;5073235;28;20017;-75
2022/12/19 07:41:25;;;;;;;0.20;0.20;;;0.80;99.90;;;;;;5056795;28;20031;-75
2022/12/19 07:43:51;;;;;;;0.10;0.10;;;;;;;;;;5075207;28;20025;-75
2022/12/19 07:46:29;;;;;;;0.10;0.10;;;1.10;99.90;;;;;;5057429;28;20108;-75
2022/12/19 07:49:07;;;;;;;1.77;1.77;;;1.30;99.90;;;;;;5076968;28;20037;-76
2022/12/19 07:51:36;;;;;;;0.20;0.20;;;1.30;99.90;;;;;;5076209;28;20025;-76
2022/12/19 07:54:05;;;;;;;0.10;0.10;;;1.50;99.90;;;;;;5072684;28;20059;-75
2022/12/19 07:56:42;;;;;;;0.10;0.10;;;1.50;99.90;;;;;;5083567;28;20025;-78
2022/12/19 07:59:10;;;;;;;0.10;0.10;;;1.70;99.90;;;;;;5076401;28;20110;-75
2022/12/19 08:01:36;;;;;;;0.10;0.10;;;1.70;99.90;;;;;;5057707;28;20113;-76
2022/12/19 08:04:02;;;;;;;0.45;0.45;;;1.90;99.90;;;;;;5076071;28;20057;-76
2022/12/19 08:06:51;;;;;;;0.10;0.10;;;2.00;99.90;;;;;;5050539;28;20702;-76
2022/12/19 08:09:37;;;;;;;0.10;0.10;;;2.50;99.90;;;;;;5055885;28;20041;-74
2022/12/19 08:12:04;;;;;;;0.10;0.10;;;2.20;99.90;;;;;;5071506;28;20383;-75
2022/12/19 08:14:33;;;;;;;0.10;0.10;;;2.50;99.90;;;;;;5075664;28;20033;-76
2022/12/19 08:17:01;;;;;;;0.10;0.10;;;2.50;99.90;;;;;;5070337;28;20052;-76
2022/12/19 08:19:28;;;;;;;0.10;0.10;;;2.60;99.90;;;;;;5069361;28;20372;-76
2022/12/19 08:21:56;;;;;;;1.27;1.27;;;2.70;99.90;;;;;;5057848;28;20028;-75
2022/12/19 08:24:32;;;;;;;0.13;0.13;;;2.70;99.90;;;;;;5073865;28;20031;-75
2022/12/19 08:26:58;;;;;;;0.00;0.00;;;2.80;99.90;;;;;;5085980;28;20020;-76
2022/12/19 08:29:28;;;;;;;0.10;0.10;;;3.50;99.90;;;;;;5082425;28;20076;-75
2022/12/19 08:31:55;;;;;;;0.85;0.85;;;3.20;99.90;;;;;;5083854;28;20051;-75
2022/12/19 08:34:21;;;;;;;0.10;0.10;;;3.20;99.90;;;;;;5080948;28;20078;-81
2022/12/19 08:36:46;;;;;;;0.10;0.10;;;6.40;99.90;;;;;;5062269;28;20025;-77
2022/12/19 08:39:13;;;;;;;0.00;0.00;;;;;;;;;;5073446;28;20056;-75
2022/12/19 08:41:39;;;;;;;0.00;0.00;;;;;;;;;;5072825;28;20072;-75
2022/12/19 08:44:06;;;;;;;0.10;0.10;;;3.40;99.90;;;;;;5088395;28;20047;-75
2022/12/19 08:46:39;;;;;;;0.00;0.00;;;3.30;99.90;;;;;;5064687;28;20020;-74
2022/12/19 08:49:06;;;;;;;0.95;0.95;;;3.30;99.90;;;;;;5079194;28;20032;-75
2022/12/19 08:51:42;;;;;;;0.00;0.00;;;3.40;99.90;;;;;;5080591;28;20035;-75
2022/12/19 08:54:07;;;;;;;0.05;0.05;;;3.40;99.90;;;;;;5055801;28;20319;-75
2022/12/19 08:56:39;;;;;;;0.43;0.43;;;3.40;99.90;;;;;;5078207;28;20070;-75
2022/12/19 08:59:06;;;;;;;0.10;0.10;;;3.70;99.90;;;;;;5073714;28;20020;-75
2022/12/19 09:01:33;;;;;;;0.80;0.80;;;;;;;;;;5076055;28;20023;-77
2022/12/19 09:04:13;;;;;;;0.10;0.10;;;3.70;99.90;;;;;;5063362;28;20024;-76
2022/12/19 09:06:45;;;;;;;0.10;0.10;;;3.60;99.90;;;;;;5055008;28;20029;-84
2022/12/19 09:09:11;;;;;;;0.45;0.45;;;3.90;99.90;;;;;;5074132;28;20644;-75
2022/12/19 09:11:39;;;;;;;0.00;0.00;;;4.00;99.90;;;;;;5088530;28;20028;-76
2022/12/19 09:14:35;;;;;;;0.55;0.55;;;3.10;99.90;;;;;;5072052;28;20043;-75
2022/12/19 09:17:01;;;;;;;0.05;0.05;;;4.20;99.90;;;;;;5077219;28;20040;-76
2022/12/19 09:19:28;;;;;;;0.03;0.03;;;4.10;99.90;;;;;;5057743;28;20013;-75
2022/12/19 09:21:54;;;;;;;0.10;0.10;;;3.80;99.90;;;;;;5058294;28;20239;-76
2022/12/19 09:24:23;;;;;;;0.00;0.00;;;4.50;99.90;;;;;;5088959;28;20012;-75
2022/12/19 09:26:58;;;;;;;0.00;0.00;;;4.70;99.90;;;;;;5076502;28;20040;-75
2022/12/19 09:29:33;;;;;;;0.00;0.00;;;4.70;99.90;;;;;;5089438;28;20019;-76
2022/12/19 09:32:01;;;;;;;0.00;0.00;;;4.80;99.90;;;;;;5077550;28;20549;-75
2022/12/19 09:34:27;;;;;;;0.10;0.10;;;4.90;99.90;;;;;;5081169;28;20016;-74
2022/12/19 09:36:57;;;;;;;0.10;0.10;;;5.00;99.90;;;;;;5088437;28;20123;-76
2022/12/19 09:39:25;;;;;;;0.10;0.10;;;5.20;99.90;;;;;;5059554;28;20037;-75
2022/12/19 09:42:16;;;;;;;0.10;0.10;;;5.30;99.90;;;;;;5054200;28;20120;-75
2022/12/19 09:45:23;;;;;;;0.80;0.80;;;5.20;99.90;;;;;;5017411;28;20801;-75
2022/12/19 09:47:54;;;;;;;0.00;0.00;;;5.40;99.90;;;;;;4986929;28;20149;-76
2022/12/19 09:50:44;;;;;;;0.10;0.10;;;5.40;99.90;;;;;;4988531;28;20235;-75
2022/12/19 09:53:38;;;;;;;0.10;0.10;;;5.50;99.90;;;;;;4991482;28;20034;-76
2022/12/19 09:56:11;;;;;;;0.10;0.10;;;5.50;99.90;;;;;;4991457;28;20038;-75
2022/12/19 09:59:01;;;;;;;0.10;0.10;;;5.40;99.90;;;;;;4996556;28;20096;-75
2022/12/19 10:01:41;;;;;;;0.10;0.10;;;5.50;99.90;;;;;;4994854;28;20060;-75
2022/12/19 10:04:13;;;;;;;0.10;0.10;;;5.50;99.90;;;;;;5001891;28;20030;-76
2022/12/19 10:06:38;;;;;;;0.10;0.10;;;5.60;99.90;;;;;;4993201;28;20512;-76
2022/12/19 10:09:14;;;;;;;0.10;0.10;;;5.70;99.90;;;;;;5010319;28;20023;-75
2022/12/19 10:12:10;;;;;;;0.10;0.10;;;5.70;99.90;;;;;;4985439;28;20094;-82
2022/12/19 10:14:56;;;;;;;0.10;0.10;;;5.70;99.90;;;;;;4950620;28;20089;-76
2022/12/19 10:18:05;;;;;;;0.10;0.10;;;5.70;99.90;;;;;;4954865;28;20046;-77
2022/12/19 10:20:43;;;;;;;0.00;0.00;;;5.70;99.90;;;;;;4981488;28;20045;-76
2022/12/19 10:23:22;;;;;;;0.20;0.20;;;5.60;99.90;;;;;;4971824;28;20029;-75
2022/12/19 10:26:07;;;;;;;0.20;0.20;;;5.70;99.90;;;;;;5049371;28;20025;-75
2022/12/19 10:29:00;;;;;;;0.10;0.10;;;5.80;99.90;;;;;;5046640;28;20109;-80
2022/12/19 10:31:57;;;;;;;0.20;0.20;;;5.80;99.90;;;;;;5041466;28;20056;-75
2022/12/19 10:34:39;;;;;;;0.15;0.15;;;5.80;99.90;;;;;;4997433;28;20051;-75
2022/12/19 10:37:25;;;;;;;0.55;0.55;;;5.90;99.90;;;;;;5007966;28;20039;-76
2022/12/19 10:40:15;;;;;;;0.10;0.10;;;5.80;99.90;;;;;;4996074;28;20073;-76
2022/12/19 10:43:12;;;;;;;0.10;0.10;;;5.80;99.90;;;;;;5000495;28;20034;-75
2022/12/19 10:45:49;;;;;;;1.30;1.30;;;5.90;99.90;;;;;;4930076;29;20111;-81
2022/12/19 10:48:19;;;;;;;0.15;0.15;;;6.00;99.90;;;;;;4929333;29;20032;-76
2022/12/19 10:50:46;;;;;;;0.20;0.20;;;;;;;;;;4902890;29;20051;-75
2022/12/19 10:53:15;;;;;;;22.52;21.55;;;6.20;99.90;;;;;;4932042;29;20027;-76
2022/12/19 10:56:26;;;;;;;0.20;0.20;;;6.40;99.90;;;;;;4927032;28;20087;-76
2022/12/19 10:59:00;;;;;;;0.20;0.20;;;6.30;99.90;;;;;;4942096;29;20020;-76
2022/12/19 11:01:43;;;;;;;0.10;0.10;;;6.20;99.90;;;;;;4936948;29;20027;-76
2022/12/19 11:04:26;;;;;;;0.17;0.17;;;6.40;99.90;;;;;;4947148;29;20087;-76
2022/12/19 11:07:14;;;;;;;0.60;0.60;;;6.60;99.90;;;;;;4944115;28;20024;-75
2022/12/19 11:09:42;;;;;;;0.20;0.20;;;6.30;99.90;;;;;;4936590;29;20039;-76
2022/12/19 11:12:27;;;;;;;18.92;17.92;;;4.20;99.90;;;;;;4997916;28;20034;-76
2022/12/19 11:15:14;;;;;;;0.17;0.17;;;6.20;99.90;;;;;;4993646;28;20085;-75
2022/12/19 11:17:40;;;;;;;0.10;0.10;;;6.30;99.90;;;;;;4983951;28;20234;-76
2022/12/19 11:20:24;;;;;;;0.20;0.20;;;6.30;99.90;;;;;;4993268;28;20098;-77
2022/12/19 11:22:58;;;;;;;0.20;0.20;;;4.70;99.90;;;;;;5050936;28;20036;-76
2022/12/19 11:25:50;;;;;;;;;;;6.00;99.90;;;;;;5062834;28;20040;-76
2022/12/19 11:28:44;;;;;;;0.15;0.15;;;6.30;99.90;;;;;;5086856;28;19996;-75
2022/12/19 11:31:22;;;;;;;0.20;0.20;;;6.20;99.90;;;;;;5046168;28;20047;-76
2022/12/19 11:34:03;;;;;;;0.20;0.20;;;6.60;99.90;;;;;;5080130;28;20021;-76
2022/12/19 11:36:38;;;;;;;0.10;0.10;;;6.90;99.90;;;;;;5081309;28;20092;-76
2022/12/19 11:39:08;;;;;;;0.15;0.15;;;7.00;99.90;;;;;;5056846;28;20032;-75
2022/12/19 11:41:37;;;;;;;0.32;0.32;;;7.10;99.90;;;;;;5064547;28;20024;-75
2022/12/19 11:44:46;;;;;;;0.73;0.73;;;7.40;99.90;;;;;;5073992;28;20029;-78
2022/12/19 11:47:13;;;;;;;0.13;0.13;;;;;;;;;;5074437;28;20075;-76
2022/12/19 11:49:46;;;;;;;0.10;0.10;;;7.80;99.90;;;;;;5077223;28;20029;-76
2022/12/19 11:52:28;;;;;;;0.63;0.63;;;7.80;99.90;;;;;;5089171;28;20024;-76
2022/12/19 11:55:17;;;;;;;0.20;0.20;;;8.00;99.90;;;;;;5085036;28;20016;-77
2022/12/19 11:57:45;;;;;;;0.10;0.10;;;8.10;99.90;;;;;;5078076;28;20029;-75
2022/12/19 12:00:15;;;;;;;26.83;25.65;;;8.00;99.90;;;;;;5085437;28;20082;-76
2022/12/19 12:03:42;;;;;;;0.20;0.20;;;8.10;99.90;;;;;;5076331;28;20055;-76
2022/12/19 12:06:43;;;;;;;0.30;0.30;;;8.40;99.90;;;;;;4997915;28;20038;-76
2022/12/19 12:09:35;;;;;;;0.22;0.22;;;8.40;99.90;;;;;;4991846;28;20030;-79
2022/12/19 12:12:23;;;;;;;0.20;0.20;;;8.50;99.90;;;;;;5003925;28;20026;-76
2022/12/19 12:15:26;;;;;;;5.78;5.57;;;8.70;99.90;;;;;;4996949;28;20042;-76
2022/12/19 12:18:28;;;;;;;0.20;0.20;;;7.80;99.90;;;;;;5002139;28;20014;-75
2022/12/19 12:21:06;;;;;;;0.20;0.20;;;9.00;99.90;;;;;;4982985;28;20069;-76
2022/12/19 12:23:56;;;;;;;0.20;0.20;;;9.20;99.90;;;;;;4973363;28;20089;-76
2022/12/19 12:26:53;;;;;;;0.20;0.20;;;9.40;99.90;;;;;;4980332;28;20019;-76
2022/12/19 12:30:20;;;;;;;0.45;0.45;;;9.60;99.90;;;;;;4983848;28;20027;-76
2022/12/19 12:33:20;;;;;;;0.20;0.20;;;9.70;99.90;;;;;;4943423;29;20072;-76
2022/12/19 12:35:56;;;;;;;0.30;0.30;;;9.70;99.90;;;;;;4908381;29;20032;-75
2022/12/19 12:38:37;;;;;;;0.20;0.20;;;9.60;99.90;;;;;;4906754;29;20033;-76
2022/12/19 12:42:03;;;;;;;1.30;1.30;;;9.70;99.90;;;;;;4950369;29;20046;-75
2022/12/19 12:44:40;;;;;;;0.20;0.20;;;10.40;99.90;;;;;;4948301;29;20035;-76
2022/12/19 12:47:29;;;;;;;1.30;1.30;;;9.60;99.90;;;;;;4942872;29;20027;-76
2022/12/19 12:50:01;;;;;;;0.30;0.30;;;9.50;99.90;;;;;;4932099;29;20640;-76
2022/12/19 12:52:33;;;;;;;0.20;0.20;;;9.50;99.90;;;;;;4931207;28;20063;-77
2022/12/19 12:55:00;;;;;;;6.85;6.55;;;9.50;99.90;;;;;;4930793;29;20722;-79
2022/12/19 12:57:35;;;;;;;0.20;0.20;;;9.40;99.90;;;;;;4940265;29;20127;-77
2022/12/19 13:00:20;;;;;;;0.20;0.20;;;7.90;99.90;;;;;;4872949;29;20108;-77
2022/12/19 13:02:58;;;;;;;0.22;0.22;;;9.20;99.90;;;;;;4911388;29;20073;-75
2022/12/19 13:05:42;;;;;;;3.03;2.92;;;9.00;99.90;;;;;;4912885;29;20783;-75
2022/12/19 13:09:12;;;;;;;0.25;0.25;;;9.00;99.90;;;;;;4933662;28;20043;-76
2022/12/19 13:15:17;;;;;;;0.52;0.52;;;8.60;99.90;;;;;;4986061;28;20067;-76
2022/12/19 13:17:49;;;;;;;0.20;0.20;;;8.50;99.90;;;;;;4993593;28;20015;-76
2022/12/19 13:20:18;;;;;;;0.20;0.20;;;8.50;99.90;;;;;;4997330;28;20269;-76
2022/12/19 13:23:32;;;;;;;0.20;0.20;;;8.50;99.90;;;;;;5010800;28;20045;-76
2022/12/19 13:26:43;;;;;;;0.20;0.20;;;6.70;99.90;;;;;;4992671;28;20065;-76
2022/12/19 13:30:02;;;;;;;0.20;0.20;;;8.50;99.90;;;;;;4882038;29;20694;-76
2022/12/19 13:32:31;;;;;;;0.20;0.20;;;8.40;99.90;;;;;;4908932;29;20032;-76
2022/12/19 13:35:05;;;;;;;0.20;0.20;;;8.40;99.90;;;;;;4911743;29;20065;-78
2022/12/19 13:37:36;;;;;;;0.20;0.20;;;6.50;99.90;;;;;;4893248;29;20115;-75
2022/12/19 13:40:44;;;;;;;0.30;0.30;;;8.30;99.90;;;;;;4907986;29;20032;-77
2022/12/19 13:43:46;;;;;;;0.20;0.20;;;8.20;99.90;;;;;;4925068;29;20032;-75
2022/12/19 13:46:40;;;;;;;6.05;5.85;;;7.90;99.90;;;;;;4918140;28;20689;-76
2022/12/19 13:49:35;;;;;;;0.52;0.52;;;7.80;99.90;;;;;;4922546;29;20036;-77
2022/12/19 13:52:05;;;;;;;0.20;0.20;;;7.50;99.90;;;;;;4853829;29;20062;-75
2022/12/19 13:54:43;;;;;;;0.30;0.30;;;7.50;99.90;;;;;;4849857;29;20038;-75